createdAt,value
2018-10-03T00:00:45.977Z,10.70
2018-10-03T00:03:14.238Z,10.70
2018-10-03T00:05:43.052Z,10.70
2018-10-03T00:08:14.677Z,10.70
2018-10-03T00:10:42.885Z,10.70
2018-10-03T00:13:11.261Z,10.70
2018-10-03T00:15:39.683Z,10.70
2018-10-03T00:18:08.394Z,10.70
2018-10-03T00:20:36.986Z,10.70
2018-10-03T00:23:05.536Z,10.70
2018-10-03T00:25:34.598Z,10.70
2018-10-03T00:28:04.375Z,10.70
2018-10-03T00:30:34.037Z,10.70
2018-10-03T00:33:03.202Z,10.70
2018-10-03T00:35:32.039Z,10.70
2018-10-03T00:38:00.542Z,10.70
2018-10-03T00:40:29.755Z,10.70
2018-10-03T00:43:09.777Z,10.70
2018-10-03T00:46:12.625Z,10.70
2018-10-03T00:48:41.086Z,10.70
2018-10-03T00:51:11.261Z,10.70
2018-10-03T00:53:39.692Z,10.70
2018-10-03T00:56:13.636Z,10.70
2018-10-03T00:58:42.258Z,10.70
2018-10-03T01:01:10.918Z,10.80
2018-10-03T01:03:39.466Z,10.80
2018-10-03T01:06:08.038Z,10.80
2018-10-03T01:08:36.635Z,10.80
2018-10-03T01:11:05.613Z,10.80
2018-10-03T01:13:35.200Z,10.80
2018-10-03T01:16:05.610Z,10.80
2018-10-03T01:18:35.399Z,10.80
2018-10-03T01:21:05.041Z,10.80
2018-10-03T01:23:34.671Z,10.80
2018-10-03T01:26:03.845Z,10.70
2018-10-03T01:28:33.242Z,10.70
2018-10-03T01:31:02.114Z,10.70
2018-10-03T01:33:30.317Z,10.70
2018-10-03T01:35:58.721Z,10.70
2018-10-03T01:38:27.032Z,10.70
2018-10-03T01:40:55.553Z,10.70
2018-10-03T01:43:23.998Z,10.70
2018-10-03T01:45:52.526Z,10.70
2018-10-03T01:48:21.026Z,10.70
2018-10-03T01:50:49.543Z,10.70
2018-10-03T01:53:17.968Z,10.60
2018-10-03T01:55:46.298Z,10.60
2018-10-03T01:58:14.679Z,10.60
2018-10-03T02:00:42.889Z,10.60
2018-10-03T02:03:11.896Z,10.60
2018-10-03T02:05:40.147Z,10.60
2018-10-03T02:08:08.626Z,10.60
2018-10-03T02:10:37.035Z,10.60
2018-10-03T02:13:05.438Z,10.60
2018-10-03T02:15:35.499Z,10.60
2018-10-03T02:18:04.600Z,10.60
2018-10-03T02:20:33.549Z,10.50
2018-10-03T02:23:02.464Z,10.50
2018-10-03T02:25:30.842Z,10.50
2018-10-03T02:27:59.354Z,10.50
2018-10-03T02:30:27.801Z,10.50
2018-10-03T02:32:56.585Z,10.50
2018-10-03T02:35:24.895Z,10.50
2018-10-03T02:37:53.517Z,10.50
2018-10-03T02:40:21.862Z,10.50
2018-10-03T02:42:51.439Z,10.50
2018-10-03T02:45:20.534Z,10.50
2018-10-03T02:47:50.001Z,10.50
2018-10-03T02:50:18.359Z,10.50
2018-10-03T02:52:46.710Z,10.60
2018-10-03T02:55:15.539Z,10.60
2018-10-03T02:57:43.889Z,10.60
2018-10-03T03:00:12.350Z,10.60
2018-10-03T03:02:40.800Z,10.60
2018-10-03T03:05:09.098Z,10.60
2018-10-03T03:07:37.739Z,10.70
2018-10-03T03:10:06.473Z,10.70
2018-10-03T03:12:35.628Z,10.70
2018-10-03T03:15:06.211Z,10.70
2018-10-03T03:17:34.821Z,10.70
2018-10-03T03:20:04.370Z,10.70
2018-10-03T03:22:32.625Z,10.70
2018-10-03T03:25:01.171Z,10.70
2018-10-03T03:27:29.381Z,10.70
2018-10-03T03:29:57.603Z,10.80
2018-10-03T03:32:26.006Z,10.80
2018-10-03T03:34:54.945Z,10.80
2018-10-03T03:37:23.368Z,10.80
2018-10-03T03:39:51.607Z,10.80
2018-10-03T03:42:19.838Z,10.80
2018-10-03T03:44:48.049Z,10.90
2018-10-03T03:47:16.390Z,10.90
2018-10-03T03:49:44.717Z,11.60
2018-10-03T03:52:13.012Z,10.90
2018-10-03T03:54:41.491Z,10.90
2018-10-03T03:57:09.864Z,10.80
2018-10-03T03:59:38.342Z,10.80
2018-10-03T04:02:07.022Z,10.90
2018-10-03T04:04:35.407Z,10.90
2018-10-03T04:07:03.994Z,10.80
2018-10-03T04:09:33.125Z,10.80
2018-10-03T04:12:02.206Z,10.80
2018-10-03T04:14:30.418Z,10.80
2018-10-03T04:16:58.625Z,10.80
2018-10-03T04:19:26.941Z,10.80
2018-10-03T04:21:55.402Z,10.80
2018-10-03T04:24:23.668Z,10.80
2018-10-03T04:26:52.203Z,10.80
2018-10-03T04:29:20.973Z,10.80
2018-10-03T04:31:55.949Z,10.80
2018-10-03T04:34:24.559Z,10.80
2018-10-03T04:36:53.194Z,10.80
2018-10-03T04:39:21.655Z,10.70
2018-10-03T04:41:50.550Z,10.70
2018-10-03T04:44:18.918Z,10.70
2018-10-03T04:46:47.434Z,10.70
2018-10-03T04:49:15.862Z,10.70
2018-10-03T04:51:44.263Z,10.70
2018-10-03T04:54:12.713Z,10.70
2018-10-03T04:56:41.246Z,10.70
2018-10-03T04:59:09.667Z,10.70
2018-10-03T05:01:38.061Z,10.80
2018-10-03T05:04:06.846Z,10.80
2018-10-03T05:06:35.536Z,10.80
2018-10-03T05:09:04.915Z,10.80
2018-10-03T05:11:34.357Z,10.80
2018-10-03T05:14:03.990Z,10.90
2018-10-03T05:16:34.022Z,10.90
2018-10-03T05:19:03.372Z,10.90
2018-10-03T05:21:31.636Z,10.90
2018-10-03T05:24:00.500Z,11.00
2018-10-03T05:26:29.192Z,11.00
2018-10-03T05:28:57.461Z,11.00
2018-10-03T05:31:25.790Z,11.00
2018-10-03T05:33:54.218Z,11.00
2018-10-03T05:36:22.722Z,11.00
2018-10-03T05:38:54.148Z,11.10
2018-10-03T05:41:22.653Z,11.10
2018-10-03T05:43:51.101Z,11.10
2018-10-03T05:46:19.397Z,11.10
2018-10-03T05:48:47.695Z,11.20
2018-10-03T05:51:16.019Z,11.20
2018-10-03T05:53:45.660Z,11.20
2018-10-03T05:56:13.949Z,11.20
2018-10-03T05:58:42.599Z,11.20
2018-10-03T06:01:10.909Z,11.30
2018-10-03T06:03:39.477Z,11.30
2018-10-03T06:06:08.174Z,11.30
2018-10-03T06:08:37.058Z,11.30
2018-10-03T06:11:05.891Z,11.30
2018-10-03T06:13:35.290Z,11.30
2018-10-03T06:16:04.293Z,11.40
2018-10-03T06:18:32.676Z,11.40
2018-10-03T06:21:00.902Z,11.40
2018-10-03T06:23:29.477Z,11.50
2018-10-03T06:25:57.769Z,11.50
2018-10-03T06:28:26.185Z,11.50
2018-10-03T06:30:54.837Z,11.60
2018-10-03T06:33:23.302Z,11.60
2018-10-03T06:35:51.643Z,11.60
2018-10-03T06:38:20.044Z,11.70
2018-10-03T06:40:48.590Z,11.70
2018-10-03T06:43:16.841Z,11.70
2018-10-03T06:45:45.312Z,11.70
2018-10-03T06:48:13.630Z,11.80
2018-10-03T06:50:42.071Z,11.80
2018-10-03T06:53:10.425Z,11.80
2018-10-03T06:55:38.775Z,11.80
2018-10-03T06:58:07.459Z,11.80
2018-10-03T07:00:36.305Z,11.90
2018-10-03T07:03:05.013Z,11.90
2018-10-03T07:05:34.356Z,11.90
2018-10-03T07:08:03.836Z,11.90
2018-10-03T07:10:33.069Z,12.00
2018-10-03T07:13:02.238Z,12.00
2018-10-03T07:15:30.606Z,12.10
2018-10-03T07:17:58.816Z,12.10
2018-10-03T07:20:27.199Z,12.10
2018-10-03T07:22:55.743Z,12.10
2018-10-03T07:25:24.230Z,12.20
2018-10-03T07:27:52.602Z,12.20
2018-10-03T07:30:20.998Z,12.30
2018-10-03T07:32:49.283Z,12.30
2018-10-03T07:35:17.778Z,12.30
2018-10-03T07:37:46.299Z,12.40
2018-10-03T07:40:14.507Z,12.30
2018-10-03T07:42:42.928Z,12.40
2018-10-03T07:45:11.977Z,12.40
2018-10-03T07:47:40.322Z,12.50
2018-10-03T07:50:09.250Z,12.60
2018-10-03T07:52:37.743Z,12.60
2018-10-03T07:55:06.961Z,12.60
2018-10-03T07:57:35.336Z,12.70
2018-10-03T08:00:05.818Z,12.70
2018-10-03T08:02:35.635Z,12.90
2018-10-03T08:05:05.442Z,12.90
2018-10-03T08:07:34.687Z,13.00
2018-10-03T08:10:04.149Z,13.20
2018-10-03T08:12:33.177Z,13.20
2018-10-03T08:15:02.241Z,13.30
2018-10-03T08:17:30.628Z,13.30
2018-10-03T08:19:59.014Z,13.20
2018-10-03T08:22:27.384Z,13.20
2018-10-03T08:24:55.790Z,13.30
2018-10-03T08:27:24.030Z,13.30
2018-10-03T08:29:52.644Z,13.30
2018-10-03T08:32:21.084Z,13.30
2018-10-03T08:34:56.536Z,13.30
2018-10-03T08:37:25.006Z,13.20
2018-10-03T08:39:53.319Z,13.30
2018-10-03T08:42:22.235Z,13.20
2018-10-03T08:44:50.820Z,13.20
2018-10-03T08:47:19.334Z,13.20
2018-10-03T08:49:47.824Z,13.10
2018-10-03T08:52:16.131Z,13.10
2018-10-03T08:54:44.546Z,13.10
2018-10-03T08:57:13.070Z,13.10
2018-10-03T08:59:41.757Z,13.20
2018-10-03T09:02:10.232Z,13.20
2018-10-03T09:04:38.738Z,13.20
2018-10-03T09:07:07.200Z,13.20
2018-10-03T09:09:35.848Z,13.30
2018-10-03T09:12:05.127Z,13.40
2018-10-03T09:14:34.137Z,13.50
2018-10-03T09:17:03.992Z,13.50
2018-10-03T09:19:32.898Z,13.70
2018-10-03T09:22:02.182Z,13.90
2018-10-03T09:24:30.552Z,14.00
2018-10-03T09:26:59.165Z,14.10
2018-10-03T09:29:27.832Z,14.20
2018-10-03T09:31:56.235Z,14.10
2018-10-03T09:34:25.063Z,13.90
2018-10-03T09:36:53.416Z,13.90
2018-10-03T09:39:21.864Z,13.80
2018-10-03T09:41:50.138Z,13.90
2018-10-03T09:44:18.341Z,14.00
2018-10-03T09:46:46.797Z,14.10
2018-10-03T09:49:15.226Z,14.10
2018-10-03T09:51:43.770Z,14.10
2018-10-03T09:54:12.041Z,14.20
2018-10-03T09:56:40.404Z,14.20
2018-10-03T09:59:08.869Z,14.20
2018-10-03T10:01:42.249Z,14.50
2018-10-03T10:04:10.917Z,14.80
2018-10-03T10:06:39.451Z,14.80
2018-10-03T10:09:09.398Z,14.70
2018-10-03T10:11:37.808Z,14.80
2018-10-03T10:14:06.234Z,15.00
2018-10-03T10:16:35.312Z,15.10
2018-10-03T10:19:04.777Z,15.30
2018-10-03T10:21:34.127Z,15.40
2018-10-03T10:24:02.774Z,15.40
2018-10-03T10:26:31.007Z,15.40
2018-10-03T10:28:59.265Z,15.40
2018-10-03T10:31:27.806Z,15.40
2018-10-03T10:33:56.074Z,15.40
2018-10-03T10:36:24.323Z,15.30
2018-10-03T10:38:52.693Z,15.20
2018-10-03T10:41:21.127Z,15.10
2018-10-03T10:43:49.261Z,15.10
2018-10-03T10:46:17.537Z,15.00
2018-10-03T10:48:46.005Z,15.00
2018-10-03T10:51:14.504Z,15.00
2018-10-03T10:53:42.896Z,15.10
2018-10-03T10:56:11.550Z,15.10
2018-10-03T10:58:39.903Z,15.20
2018-10-03T11:01:08.410Z,15.30
2018-10-03T11:03:36.831Z,15.40
2018-10-03T11:06:05.627Z,15.50
2018-10-03T11:08:37.881Z,15.70
2018-10-03T11:11:06.901Z,15.80
2018-10-03T11:13:35.468Z,15.90
2018-10-03T11:16:04.963Z,15.80
2018-10-03T11:18:34.448Z,15.80
2018-10-03T11:21:04.135Z,15.80
2018-10-03T11:23:33.405Z,15.80
2018-10-03T11:26:02.312Z,15.80
2018-10-03T11:28:30.499Z,15.80
2018-10-03T11:30:58.721Z,15.70
2018-10-03T11:33:27.211Z,15.70
2018-10-03T11:35:55.470Z,15.70
2018-10-03T11:38:23.821Z,15.50
2018-10-03T11:40:52.069Z,15.60
2018-10-03T11:43:20.278Z,15.70
2018-10-03T11:45:49.110Z,15.60
2018-10-03T11:48:17.545Z,15.80
2018-10-03T11:50:45.792Z,15.80
2018-10-03T11:53:13.985Z,15.90
2018-10-03T11:55:42.388Z,15.80
2018-10-03T11:58:10.952Z,15.70
2018-10-03T12:00:40.381Z,15.80
2018-10-03T12:03:08.887Z,15.80
2018-10-03T12:05:37.372Z,15.90
2018-10-03T12:08:06.094Z,16.00
2018-10-03T12:10:35.121Z,15.90
2018-10-03T12:13:04.595Z,16.00
2018-10-03T12:15:33.701Z,16.10
2018-10-03T12:18:02.641Z,16.10
2018-10-03T12:20:31.163Z,16.10
2018-10-03T12:22:59.470Z,16.20
2018-10-03T12:25:27.812Z,16.10
2018-10-03T12:27:56.314Z,16.20
2018-10-03T12:30:24.755Z,16.20
2018-10-03T12:32:53.173Z,16.40
2018-10-03T12:35:26.757Z,16.30
2018-10-03T12:37:55.295Z,16.30
2018-10-03T12:40:23.642Z,16.40
2018-10-03T12:42:51.992Z,16.50
2018-10-03T12:45:20.435Z,16.40
2018-10-03T12:47:48.839Z,16.40
2018-10-03T12:50:17.370Z,16.40
2018-10-03T12:52:45.637Z,16.40
2018-10-03T12:55:14.009Z,16.40
2018-10-03T12:57:42.543Z,16.50
2018-10-03T13:00:12.124Z,16.60
2018-10-03T13:02:40.494Z,16.80
2018-10-03T13:05:08.878Z,17.00
2018-10-03T13:07:37.586Z,16.80
2018-10-03T13:10:06.046Z,16.80
2018-10-03T13:12:34.981Z,16.70
2018-10-03T13:15:04.287Z,16.70
2018-10-03T13:17:33.437Z,16.60
2018-10-03T13:20:02.893Z,16.70
2018-10-03T13:22:31.178Z,16.60
2018-10-03T13:24:59.400Z,16.80
2018-10-03T13:27:28.671Z,16.50
2018-10-03T13:29:57.052Z,16.60
2018-10-03T13:32:26.094Z,16.70
2018-10-03T13:34:54.339Z,16.80
2018-10-03T13:37:22.641Z,17.00
2018-10-03T13:39:50.864Z,17.20
2018-10-03T13:42:19.116Z,17.20
2018-10-03T13:44:48.730Z,17.20
2018-10-03T13:47:17.003Z,17.10
2018-10-03T13:49:45.309Z,16.90
2018-10-03T13:52:13.811Z,16.60
2018-10-03T13:54:42.099Z,16.30
2018-10-03T13:57:10.430Z,16.20
2018-10-03T13:59:38.734Z,16.30
2018-10-03T14:04:59.710Z,16.10
2018-10-03T14:07:34.619Z,16.10
2018-10-03T14:10:03.513Z,16.10
2018-10-03T14:12:32.071Z,16.30
2018-10-03T14:15:00.695Z,16.40
2018-10-03T14:17:29.011Z,16.40
2018-10-03T14:19:57.412Z,16.60
2018-10-03T14:22:25.681Z,16.60
2018-10-03T14:24:53.963Z,16.50
2018-10-03T14:27:22.218Z,16.60
2018-10-03T14:29:50.492Z,16.60
2018-10-03T14:32:18.701Z,16.60
2018-10-03T14:34:46.933Z,16.60
2018-10-03T14:37:16.076Z,16.70
2018-10-03T14:39:44.355Z,16.70
2018-10-03T14:42:12.558Z,16.70
2018-10-03T14:44:40.805Z,16.60
2018-10-03T14:47:10.379Z,16.70
2018-10-03T14:49:38.686Z,16.90
2018-10-03T14:52:07.225Z,16.90
2018-10-03T14:54:35.454Z,16.80
2018-10-03T14:57:04.906Z,16.70
2018-10-03T14:59:33.708Z,16.60
2018-10-03T15:02:02.861Z,16.50
2018-10-03T15:04:31.207Z,16.40
2018-10-03T15:06:59.531Z,16.30
2018-10-03T15:09:28.059Z,16.40
2018-10-03T15:11:56.385Z,16.40
2018-10-03T15:14:24.746Z,16.40
2018-10-03T15:16:53.174Z,16.40
2018-10-03T15:19:21.466Z,16.50
2018-10-03T15:21:49.729Z,16.60
2018-10-03T15:24:18.197Z,16.60
2018-10-03T15:26:46.403Z,16.70
2018-10-03T15:29:15.056Z,16.60
2018-10-03T15:31:43.987Z,16.60
2018-10-03T15:34:12.253Z,16.60
2018-10-03T15:36:40.616Z,16.60
2018-10-03T15:39:09.557Z,16.50
2018-10-03T15:41:38.319Z,16.50
2018-10-03T15:44:06.953Z,16.50
2018-10-03T15:46:35.755Z,16.40
2018-10-03T15:49:05.100Z,16.30
2018-10-03T15:51:34.695Z,16.30
2018-10-03T15:54:03.324Z,16.30
2018-10-03T15:56:32.629Z,16.30
2018-10-03T15:59:00.977Z,16.30
2018-10-03T16:01:31.687Z,16.40
2018-10-03T16:04:00.269Z,16.40
2018-10-03T16:06:28.592Z,16.50
2018-10-03T16:08:56.849Z,16.60
2018-10-03T16:11:25.110Z,16.60
2018-10-03T16:13:53.394Z,16.60
2018-10-03T16:16:21.661Z,16.60
2018-10-03T16:18:50.442Z,16.50
2018-10-03T16:21:18.811Z,16.40
2018-10-03T16:23:47.147Z,16.40
2018-10-03T16:26:16.503Z,16.30
2018-10-03T16:28:49.018Z,16.30
2018-10-03T16:31:17.913Z,16.20
2018-10-03T16:33:46.802Z,16.10
2018-10-03T16:36:17.484Z,16.10
2018-10-03T16:38:46.374Z,16.00
2018-10-03T16:41:15.046Z,15.90
2018-10-03T16:43:43.730Z,15.70
2018-10-03T16:46:12.410Z,15.70
2018-10-03T16:48:41.140Z,15.60
2018-10-03T16:51:09.719Z,15.50
2018-10-03T16:53:38.344Z,15.40
2018-10-03T16:56:07.127Z,15.30
2018-10-03T16:58:35.727Z,15.20
2018-10-03T17:01:04.755Z,15.10
2018-10-03T17:03:33.653Z,14.90
2018-10-03T17:06:02.443Z,14.80
2018-10-03T17:08:31.427Z,14.50
2018-10-03T17:11:00.119Z,14.40
2018-10-03T17:13:28.408Z,14.10
2018-10-03T17:15:56.666Z,13.90
2018-10-03T17:18:24.955Z,13.70
2018-10-03T17:20:53.287Z,13.50
2018-10-03T17:23:21.615Z,13.30
2018-10-03T17:25:49.888Z,13.20
2018-10-03T17:28:18.114Z,13.00
2018-10-03T17:30:46.498Z,12.80
2018-10-03T17:33:14.913Z,12.70
2018-10-03T17:35:43.453Z,12.60
2018-10-03T17:38:12.028Z,12.50
2018-10-03T17:40:40.389Z,12.40
2018-10-03T17:43:08.810Z,12.30
2018-10-03T17:45:37.246Z,12.10
2018-10-03T17:48:05.905Z,12.00
2018-10-03T17:50:35.685Z,11.90
2018-10-03T17:53:05.294Z,11.90
2018-10-03T17:55:34.984Z,11.70
2018-10-03T17:58:03.806Z,11.60
2018-10-03T18:00:33.035Z,11.50
2018-10-03T18:03:01.331Z,11.40
2018-10-03T18:05:32.232Z,11.30
2018-10-03T18:08:07.701Z,11.20
2018-10-03T18:10:36.297Z,11.10
2018-10-03T18:13:04.799Z,11.10
2018-10-03T18:15:34.085Z,11.00
2018-10-03T18:18:03.364Z,10.90
2018-10-03T18:20:32.009Z,10.80
2018-10-03T18:23:00.569Z,10.70
2018-10-03T18:25:29.097Z,10.60
2018-10-03T18:27:57.930Z,10.50
2018-10-03T18:30:26.434Z,10.40
2018-10-03T18:32:54.935Z,10.40
2018-10-03T18:35:23.294Z,10.20
2018-10-03T18:37:51.879Z,10.20
2018-10-03T18:40:20.643Z,10.10
2018-10-03T18:42:49.278Z,10.00
2018-10-03T18:45:18.032Z,9.90
2018-10-03T18:47:59.617Z,9.80
2018-10-03T18:50:28.210Z,9.80
2018-10-03T18:52:56.556Z,9.70
2018-10-03T18:55:25.034Z,9.70
2018-10-03T18:57:53.774Z,9.70
2018-10-03T19:00:22.458Z,9.60
2018-10-03T19:02:51.450Z,9.50
2018-10-03T19:05:20.168Z,9.50
2018-10-03T19:07:48.705Z,9.40
2018-10-03T19:10:17.602Z,9.30
2018-10-03T19:12:46.487Z,9.30
2018-10-03T19:15:15.328Z,9.20
2018-10-03T19:17:44.066Z,9.20
2018-10-03T19:20:12.941Z,9.10
2018-10-03T19:22:41.775Z,9.00
2018-10-03T19:25:10.424Z,9.00
2018-10-03T19:27:39.321Z,9.00
2018-10-03T19:30:08.780Z,9.00
2018-10-03T19:32:37.711Z,8.90
2018-10-03T19:35:06.253Z,8.90
2018-10-03T19:37:35.124Z,8.90
2018-10-03T19:40:03.523Z,8.80
2018-10-03T19:42:32.039Z,8.80
2018-10-03T19:45:00.543Z,8.70
2018-10-03T19:47:33.881Z,8.70
2018-10-03T19:50:02.500Z,8.70
2018-10-03T19:52:31.040Z,8.70
2018-10-03T19:54:59.775Z,8.60
2018-10-03T19:57:28.365Z,8.50
2018-10-03T20:00:01.188Z,8.50
2018-10-03T20:02:29.785Z,8.40
2018-10-03T20:04:58.545Z,8.40
2018-10-03T20:07:27.056Z,8.30
2018-10-03T20:09:55.877Z,8.30
2018-10-03T20:12:24.315Z,8.20
2018-10-03T20:14:53.076Z,8.20
2018-10-03T20:17:21.584Z,8.10
2018-10-03T20:19:50.103Z,8.10
2018-10-03T20:22:18.739Z,8.00
2018-10-03T20:24:47.431Z,8.00
2018-10-03T20:27:15.975Z,7.90
2018-10-03T20:29:44.539Z,7.80
2018-10-03T20:32:13.305Z,7.80
2018-10-03T20:34:41.956Z,7.80
2018-10-03T20:37:10.424Z,7.80
2018-10-03T20:39:38.988Z,7.70
2018-10-03T20:42:07.472Z,7.70
2018-10-03T20:44:35.868Z,7.70
2018-10-03T20:47:04.546Z,7.60
2018-10-03T20:49:33.216Z,7.60
2018-10-03T20:52:01.816Z,7.60
2018-10-03T20:54:30.353Z,7.50
2018-10-03T20:56:58.896Z,7.50
2018-10-03T20:59:27.651Z,7.40
2018-10-03T21:01:56.433Z,7.40
2018-10-03T21:04:26.531Z,7.40
2018-10-03T21:06:54.849Z,7.40
2018-10-03T21:09:23.274Z,7.30
2018-10-03T21:11:51.804Z,7.30
2018-10-03T21:14:20.108Z,7.30
2018-10-03T21:16:48.404Z,7.20
2018-10-03T21:19:16.740Z,7.20
2018-10-03T21:21:45.281Z,7.20
2018-10-03T21:24:13.633Z,7.10
2018-10-03T21:26:41.909Z,7.10
2018-10-03T21:29:10.295Z,7.00
2018-10-03T21:31:38.628Z,7.00
2018-10-03T21:34:06.959Z,7.00
2018-10-03T21:36:35.274Z,6.90
2018-10-03T21:39:04.977Z,6.90
2018-10-03T21:41:33.514Z,6.80
2018-10-03T21:44:01.867Z,6.80
2018-10-03T21:46:30.229Z,6.80
2018-10-03T21:48:58.578Z,6.80
2018-10-03T21:51:27.058Z,6.70
2018-10-03T21:53:55.517Z,6.60
2018-10-03T21:56:23.900Z,6.60
2018-10-03T21:58:52.256Z,6.60
2018-10-03T22:01:20.754Z,6.50
2018-10-03T22:03:49.140Z,6.60
2018-10-03T22:06:17.500Z,6.60
2018-10-03T22:08:45.978Z,6.60
2018-10-03T22:11:14.440Z,6.60
2018-10-03T22:13:42.780Z,6.60
2018-10-03T22:16:11.106Z,6.50
2018-10-03T22:18:39.496Z,6.50
2018-10-03T22:21:07.896Z,6.50
2018-10-03T22:23:36.355Z,6.40
2018-10-03T22:26:04.763Z,6.40
2018-10-03T22:28:33.100Z,6.40
2018-10-03T22:31:01.456Z,6.30
2018-10-03T22:33:29.772Z,6.30
2018-10-03T22:35:58.108Z,6.30
2018-10-03T22:38:26.531Z,6.20
2018-10-03T22:40:54.825Z,6.10
2018-10-03T22:43:23.281Z,6.10
2018-10-03T22:45:51.587Z,6.10
2018-10-03T22:48:19.930Z,6.10
2018-10-03T22:50:48.248Z,6.10
2018-10-03T22:53:16.731Z,6.10
2018-10-03T22:55:45.168Z,6.00
2018-10-03T22:58:13.550Z,6.00
2018-10-03T23:00:41.868Z,6.00
2018-10-03T23:03:10.616Z,5.90
2018-10-03T23:05:39.025Z,5.90
2018-10-03T23:08:07.450Z,5.80
2018-10-03T23:10:35.958Z,5.80
2018-10-03T23:13:04.405Z,5.80
2018-10-03T23:15:32.735Z,5.80
2018-10-03T23:18:01.161Z,5.70
2018-10-03T23:20:29.572Z,5.70
2018-10-03T23:22:57.974Z,5.60
2018-10-03T23:25:26.309Z,5.60
2018-10-03T23:27:54.651Z,5.60
2018-10-03T23:30:22.928Z,5.60
2018-10-03T23:32:51.301Z,5.60
2018-10-03T23:35:19.577Z,5.60
2018-10-03T23:37:47.887Z,5.60
2018-10-03T23:40:16.202Z,5.50
2018-10-03T23:42:44.533Z,5.50
2018-10-03T23:45:12.861Z,5.50
2018-10-03T23:47:41.192Z,5.40
2018-10-03T23:50:09.552Z,5.40
2018-10-03T23:52:37.948Z,5.40
2018-10-03T23:55:06.235Z,5.40
2018-10-03T23:57:34.668Z,5.40
